PWSweather.com
Personal Weather Stations
Station Observations
TORPERJOSANG
Carretera De Villel SN , MochalesES 19332

Carretera De Villel SN MochalesES 19332

Lat: 41.09957, Lon: -2.012569

Elevation: 3215

Station Type: PSW-20

http://www.torresp.com

High Low Average
Temperature 69.1°F20.6°C 50.9°F10.5°C 59.8°F15.4°C
Dew Point 56.4°F13.6°C 43.6°F6.4°C 48.4°F9.1°C
Winds 11.5 mph 18.5 kmh Calm Calm 3.0 mph SSE4.8 kmh SSE
Wind Gusts 17.3 mph27.8 kmh -- 5.0 mph8.0 kmh
Humidity 91% 40% 68%
Pressure 30.09 in1019.0 mb 29.97 in1014.9 mb -
Precipitation 0.00 in0.0 mm - -
Hour Temp Dew Point Humidity Winds Wind Gusts Pressure Precip Precip Rate Daily Precip Total
12:00 AM 58.5°F14.7°C 54.9°F12.7°C 88% 1.2 mph NW1.9 kmh NW 2.3 mph3.7 kmh 29.97 in1014.9 mb - 0.00 in0.0 mm 0.00 in0.0 mm
12:10 AM 58.5°F14.7°C 55.2°F12.9°C 89% 2.3 mph W3.7 kmh W 3.5 mph5.6 kmh 29.97 in1014.9 mb - 0.00 in0.0 mm 0.00 in0.0 mm
12:15 AM 58.6°F14.8°C 55.4°F13.0°C 89% Calm Calm 1.2 mph1.9 kmh 29.97 in1014.9 mb - 0.00 in0.0 mm 0.00 in0.0 mm
12:20 AM 58.6°F14.8°C 55.4°F13.0°C 89% Calm Calm 1.2 mph1.9 kmh 29.97 in1014.9 mb - 0.00 in0.0 mm 0.00 in0.0 mm
12:25 AM 58.6°F14.8°C 55.4°F13.0°C 89% 1.2 mph W1.9 kmh W 1.2 mph1.9 kmh 29.97 in1014.9 mb - 0.00 in0.0 mm 0.00 in0.0 mm
12:30 AM 58.6°F14.8°C 55.4°F13.0°C 89% Calm Calm 1.2 mph1.9 kmh 29.97 in1014.9 mb - 0.00 in0.0 mm 0.00 in0.0 mm
12:35 AM 58.5°F14.7°C 55.2°F12.9°C 89% 2.3 mph S3.7 kmh S 4.6 mph7.4 kmh 29.97 in1014.9 mb - 0.00 in0.0 mm 0.00 in0.0 mm
12:40 AM 58.3°F14.6°C 55.1°F12.8°C 89% Calm Calm 1.2 mph1.9 kmh 29.97 in1014.9 mb - 0.00 in0.0 mm 0.00 in0.0 mm
12:45 AM 58.3°F14.6°C 55.4°F13.0°C 90% 1.2 mph NW1.9 kmh NW 3.5 mph5.6 kmh 29.97 in1014.9 mb - 0.00 in0.0 mm 0.00 in0.0 mm
12:50 AM 58.3°F14.6°C 55.4°F13.0°C 90% 1.2 mph S1.9 kmh S 1.2 mph1.9 kmh 29.97 in1014.9 mb - 0.00 in0.0 mm 0.00 in0.0 mm
12:55 AM 58.3°F14.6°C 55.4°F13.0°C 90% Calm Calm 1.2 mph1.9 kmh 29.97 in1014.9 mb - 0.00 in0.0 mm 0.00 in0.0 mm
01:00 AM 58.3°F14.6°C 55.4°F13.0°C 90% Calm Calm -- 29.97 in1014.9 mb - 0.00 in0.0 mm 0.00 in0.0 mm
01:10 AM 58.3°F14.6°C 55.4°F13.0°C 90% Calm Calm 1.2 mph1.9 kmh 29.97 in1014.9 mb - 0.00 in0.0 mm 0.00 in0.0 mm
01:15 AM 58.3°F14.6°C 55.7°F13.2°C 91% Calm Calm -- 29.97 in1014.9 mb - 0.00 in0.0 mm 0.00 in0.0 mm
01:20 AM 58.3°F14.6°C 55.7°F13.2°C 91% Calm Calm -- 29.97 in1014.9 mb - 0.00 in0.0 mm 0.00 in0.0 mm
01:25 AM 58.3°F14.6°C 55.7°F13.2°C 91% Calm Calm 1.2 mph1.9 kmh 29.97 in1014.9 mb - 0.00 in0.0 mm 0.00 in0.0 mm
01:30 AM 58.5°F14.7°C 55.8°F13.2°C 91% 1.2 mph SW1.9 kmh SW 1.2 mph1.9 kmh 29.97 in1014.9 mb - 0.00 in0.0 mm 0.00 in0.0 mm
01:35 AM 58.6°F14.8°C 56.0°F13.3°C 91% 1.2 mph W1.9 kmh W 2.3 mph3.7 kmh 29.97 in1014.9 mb - 0.00 in0.0 mm 0.00 in0.0 mm
01:40 AM 58.6°F14.8°C 56.0°F13.3°C 91% 1.2 mph S1.9 kmh S 3.5 mph5.6 kmh 29.97 in1014.9 mb - 0.00 in0.0 mm 0.00 in0.0 mm
01:45 AM 59.0°F15.0°C 56.1°F13.4°C 90% 3.5 mph S5.6 kmh S 5.8 mph9.3 kmh 29.97 in1014.9 mb - 0.00 in0.0 mm 0.00 in0.0 mm
01:50 AM 59.4°F15.2°C 56.1°F13.4°C 89% 5.8 mph NW9.3 kmh NW 8.1 mph13.0 kmh 29.97 in1014.9 mb - 0.00 in0.0 mm 0.00 in0.0 mm
01:55 AM 59.9°F15.5°C 56.3°F13.5°C 88% 1.2 mph S1.9 kmh S 5.8 mph9.3 kmh 29.97 in1014.9 mb - 0.00 in0.0 mm 0.00 in0.0 mm
02:00 AM 60.3°F15.7°C 56.4°F13.6°C 87% 1.2 mph SE1.9 kmh SE 3.5 mph5.6 kmh 29.97 in1014.9 mb - 0.00 in0.0 mm 0.00 in0.0 mm
02:10 AM 60.3°F15.7°C 55.7°F13.2°C 85% 3.5 mph S5.6 kmh S 4.6 mph7.4 kmh 30.00 in1015.9 mb - 0.00 in0.0 mm 0.00 in0.0 mm
02:15 AM 60.1°F15.6°C 55.2°F12.9°C 84% 1.2 mph NW1.9 kmh NW 1.2 mph1.9 kmh 30.00 in1015.9 mb - 0.00 in0.0 mm 0.00 in0.0 mm
02:20 AM 59.9°F15.5°C 55.1°F12.8°C 84% Calm Calm 1.2 mph1.9 kmh 30.00 in1015.9 mb - 0.00 in0.0 mm 0.00 in0.0 mm
02:25 AM 59.7°F15.4°C 54.5°F12.5°C 83% 3.5 mph NE5.6 kmh NE 5.8 mph9.3 kmh 30.00 in1015.9 mb - 0.00 in0.0 mm 0.00 in0.0 mm
02:30 AM 59.5°F15.3°C 54.4°F12.4°C 83% 1.2 mph 1.9 kmh 2.3 mph3.7 kmh 30.00 in1015.9 mb - 0.00 in0.0 mm 0.00 in0.0 mm
02:35 AM 59.5°F15.3°C 54.4°F12.4°C 83% 2.3 mph WSW3.7 kmh WSW 3.5 mph5.6 kmh 30.00 in1015.9 mb - 0.00 in0.0 mm 0.00 in0.0 mm
02:40 AM 59.5°F15.3°C 54.4°F12.4°C 83% 2.3 mph SE3.7 kmh SE 3.5 mph5.6 kmh 30.00 in1015.9 mb - 0.00 in0.0 mm 0.00 in0.0 mm
02:45 AM 59.7°F15.4°C 54.5°F12.5°C 83% 1.2 mph SW1.9 kmh SW 2.3 mph3.7 kmh 30.00 in1015.9 mb - 0.00 in0.0 mm 0.00 in0.0 mm
02:50 AM 59.7°F15.4°C 54.2°F12.3°C 82% 3.5 mph E5.6 kmh E 3.5 mph5.6 kmh 30.00 in1015.9 mb - 0.00 in0.0 mm 0.00 in0.0 mm
02:55 AM 59.7°F15.4°C 53.9°F12.2°C 81% 1.2 mph SE1.9 kmh SE 2.3 mph3.7 kmh 30.00 in1015.9 mb - 0.00 in0.0 mm 0.00 in0.0 mm
03:00 AM 59.5°F15.3°C 53.7°F12.1°C 81% 1.2 mph SW1.9 kmh SW 3.5 mph5.6 kmh 30.00 in1015.9 mb - 0.00 in0.0 mm 0.00 in0.0 mm
03:10 AM 59.5°F15.3°C 53.7°F12.1°C 81% 1.2 mph S1.9 kmh S 2.3 mph3.7 kmh 30.00 in1015.9 mb - 0.00 in0.0 mm 0.00 in0.0 mm
03:15 AM 59.4°F15.2°C 53.2°F11.8°C 80% Calm Calm 2.3 mph3.7 kmh 30.00 in1015.9 mb - 0.00 in0.0 mm 0.00 in0.0 mm
03:20 AM 59.4°F15.2°C 52.8°F11.6°C 79% 1.2 mph S1.9 kmh S 3.5 mph5.6 kmh 30.00 in1015.9 mb - 0.00 in0.0 mm 0.00 in0.0 mm
03:25 AM 59.2°F15.1°C 52.7°F11.5°C 79% 1.2 mph SE1.9 kmh SE 3.5 mph5.6 kmh 30.00 in1015.9 mb - 0.00 in0.0 mm 0.00 in0.0 mm
03:30 AM 59.0°F15.0°C 52.5°F11.4°C 79% 3.5 mph ENE5.6 kmh ENE 4.6 mph7.4 kmh 30.00 in1015.9 mb - 0.00 in0.0 mm 0.00 in0.0 mm
03:35 AM 59.0°F15.0°C 52.1°F11.2°C 78% 1.2 mph ESE1.9 kmh ESE 2.3 mph3.7 kmh 30.00 in1015.9 mb - 0.00 in0.0 mm 0.00 in0.0 mm
03:40 AM 58.8°F14.9°C 52.3°F11.3°C 79% 1.2 mph NW1.9 kmh NW 2.3 mph3.7 kmh 30.00 in1015.9 mb - 0.00 in0.0 mm 0.00 in0.0 mm
03:45 AM 58.6°F14.8°C 52.1°F11.2°C 79% 1.2 mph W1.9 kmh W 1.2 mph1.9 kmh 30.00 in1015.9 mb - 0.00 in0.0 mm 0.00 in0.0 mm
03:50 AM 58.3°F14.6°C 52.2°F11.2°C 80% 1.2 mph SE1.9 kmh SE 2.3 mph3.7 kmh 30.00 in1015.9 mb - 0.00 in0.0 mm 0.00 in0.0 mm
03:55 AM 58.1°F14.5°C 52.0°F11.1°C 80% Calm Calm 1.2 mph1.9 kmh 30.00 in1015.9 mb - 0.00 in0.0 mm 0.00 in0.0 mm
04:00 AM 57.9°F14.4°C 51.8°F11.0°C 80% Calm Calm 1.2 mph1.9 kmh 30.00 in1015.9 mb - 0.00 in0.0 mm 0.00 in0.0 mm
04:10 AM 57.2°F14.0°C 51.1°F10.6°C 80% 1.2 mph NE1.9 kmh NE 2.3 mph3.7 kmh 30.00 in1015.9 mb - 0.00 in0.0 mm 0.00 in0.0 mm
04:15 AM 57.0°F13.9°C 51.2°F10.7°C 81% 1.2 mph NW1.9 kmh NW 2.3 mph3.7 kmh 30.00 in1015.9 mb - 0.00 in0.0 mm 0.00 in0.0 mm
04:20 AM 56.8°F13.8°C 51.4°F10.8°C 82% Calm Calm -- 30.00 in1015.9 mb - 0.00 in0.0 mm 0.00 in0.0 mm
04:25 AM 56.3°F13.5°C 50.9°F10.5°C 82% 1.2 mph 1.9 kmh 1.2 mph1.9 kmh 30.00 in1015.9 mb - 0.00 in0.0 mm 0.00 in0.0 mm
04:30 AM 56.1°F13.4°C 50.7°F10.4°C 82% 1.2 mph W1.9 kmh W 3.5 mph5.6 kmh 30.00 in1015.9 mb - 0.00 in0.0 mm 0.00 in0.0 mm
04:35 AM 55.8°F13.2°C 50.7°F10.4°C 83% Calm Calm 1.2 mph1.9 kmh 30.00 in1015.9 mb - 0.00 in0.0 mm 0.00 in0.0 mm
04:40 AM 55.4°F13.0°C 50.3°F10.2°C 83% Calm Calm -- 30.00 in1015.9 mb - 0.00 in0.0 mm 0.00 in0.0 mm
04:45 AM 55.2°F12.9°C 50.1°F10.1°C 83% Calm Calm -- 30.00 in1015.9 mb - 0.00 in0.0 mm 0.00 in0.0 mm
04:50 AM 54.9°F12.7°C 49.8°F9.9°C 83% Calm Calm 1.2 mph1.9 kmh 30.00 in1015.9 mb - 0.00 in0.0 mm 0.00 in0.0 mm
04:55 AM 54.7°F12.6°C 49.6°F9.8°C 83% Calm Calm -- 30.00 in1015.9 mb - 0.00 in0.0 mm 0.00 in0.0 mm
05:00 AM 54.5°F12.5°C 49.4°F9.7°C 83% 1.2 mph NE1.9 kmh NE 3.5 mph5.6 kmh 30.00 in1015.9 mb - 0.00 in0.0 mm 0.00 in0.0 mm
05:10 AM 54.1°F12.3°C 49.4°F9.7°C 84% Calm Calm 1.2 mph1.9 kmh 30.00 in1015.9 mb - 0.00 in0.0 mm 0.00 in0.0 mm
05:15 AM 54.0°F12.2°C 49.2°F9.6°C 84% Calm Calm -- 30.00 in1015.9 mb - 0.00 in0.0 mm 0.00 in0.0 mm
05:20 AM 53.6°F12.0°C 48.9°F9.4°C 84% Calm Calm -- 30.00 in1015.9 mb - 0.00 in0.0 mm 0.00 in0.0 mm
05:25 AM 53.4°F11.9°C 49.0°F9.4°C 85% Calm Calm -- 30.00 in1015.9 mb - 0.00 in0.0 mm 0.00 in0.0 mm
05:30 AM 53.2°F11.8°C 49.2°F9.6°C 86% 1.2 mph E1.9 kmh E 2.3 mph3.7 kmh 30.00 in1015.9 mb - 0.00 in0.0 mm 0.00 in0.0 mm
05:35 AM 53.2°F11.8°C 49.2°F9.6°C 86% 1.2 mph N1.9 kmh N 2.3 mph3.7 kmh 30.00 in1015.9 mb - 0.00 in0.0 mm 0.00 in0.0 mm
05:40 AM 53.1°F11.7°C 49.0°F9.4°C 86% 1.2 mph NE1.9 kmh NE 2.3 mph3.7 kmh 30.00 in1015.9 mb - 0.00 in0.0 mm 0.00 in0.0 mm
05:45 AM 53.2°F11.8°C 49.5°F9.7°C 87% 2.3 mph NW3.7 kmh NW 3.5 mph5.6 kmh 30.00 in1015.9 mb - 0.00 in0.0 mm 0.00 in0.0 mm
05:50 AM 53.1°F11.7°C 49.3°F9.6°C 87% Calm Calm 1.2 mph1.9 kmh 30.00 in1015.9 mb - 0.00 in0.0 mm 0.00 in0.0 mm
05:55 AM 53.1°F11.7°C 49.6°F9.8°C 88% 1.2 mph SE1.9 kmh SE 2.3 mph3.7 kmh 30.00 in1015.9 mb - 0.00 in0.0 mm 0.00 in0.0 mm
06:00 AM 53.1°F11.7°C 49.6°F9.8°C 88% Calm Calm 1.2 mph1.9 kmh 30.00 in1015.9 mb - 0.00 in0.0 mm 0.00 in0.0 mm
06:10 AM 53.2°F11.8°C 50.1°F10.1°C 89% Calm Calm 1.2 mph1.9 kmh 30.03 in1016.9 mb - 0.00 in0.0 mm 0.00 in0.0 mm
06:15 AM 53.2°F11.8°C 50.1°F10.1°C 89% 1.2 mph NE1.9 kmh NE 3.5 mph5.6 kmh 30.03 in1016.9 mb - 0.00 in0.0 mm 0.00 in0.0 mm
06:20 AM 53.4°F11.9°C 50.0°F10.0°C 88% Calm Calm 1.2 mph1.9 kmh 30.03 in1016.9 mb - 0.00 in0.0 mm 0.00 in0.0 mm
06:25 AM 53.4°F11.9°C 50.0°F10.0°C 88% Calm Calm 1.2 mph1.9 kmh 30.03 in1016.9 mb - 0.00 in0.0 mm 0.00 in0.0 mm
06:30 AM 53.4°F11.9°C 50.0°F10.0°C 88% Calm Calm 1.2 mph1.9 kmh 30.03 in1016.9 mb - 0.00 in0.0 mm 0.00 in0.0 mm
06:35 AM 53.4°F11.9°C 50.0°F10.0°C 88% 1.2 mph SE1.9 kmh SE 2.3 mph3.7 kmh 30.03 in1016.9 mb - 0.00 in0.0 mm 0.00 in0.0 mm
06:40 AM 53.2°F11.8°C 49.5°F9.7°C 87% Calm Calm 1.2 mph1.9 kmh 30.03 in1016.9 mb - 0.00 in0.0 mm 0.00 in0.0 mm
06:45 AM 53.1°F11.7°C 49.3°F9.6°C 87% Calm Calm 1.2 mph1.9 kmh 30.03 in1016.9 mb - 0.00 in0.0 mm 0.00 in0.0 mm
06:50 AM 53.1°F11.7°C 49.3°F9.6°C 87% Calm Calm 1.2 mph1.9 kmh 30.03 in1016.9 mb - 0.00 in0.0 mm 0.00 in0.0 mm
06:55 AM 53.1°F11.7°C 49.3°F9.6°C 87% Calm Calm 1.2 mph1.9 kmh 30.03 in1016.9 mb - 0.00 in0.0 mm 0.00 in0.0 mm
07:00 AM 53.1°F11.7°C 49.3°F9.6°C 87% Calm Calm 1.2 mph1.9 kmh 30.03 in1016.9 mb - 0.00 in0.0 mm 0.00 in0.0 mm
07:10 AM 52.9°F11.6°C 49.1°F9.5°C 87% Calm Calm 1.2 mph1.9 kmh 30.03 in1016.9 mb - 0.00 in0.0 mm 0.00 in0.0 mm
07:15 AM 52.9°F11.6°C 49.1°F9.5°C 87% Calm Calm 1.2 mph1.9 kmh 30.03 in1016.9 mb - 0.00 in0.0 mm 0.00 in0.0 mm
07:20 AM 52.7°F11.5°C 48.9°F9.4°C 87% 1.2 mph NE1.9 kmh NE 2.3 mph3.7 kmh 30.03 in1016.9 mb - 0.00 in0.0 mm 0.00 in0.0 mm
07:25 AM 52.7°F11.5°C 48.9°F9.4°C 87% Calm Calm 1.2 mph1.9 kmh 30.03 in1016.9 mb - 0.00 in0.0 mm 0.00 in0.0 mm
07:30 AM 52.7°F11.5°C 48.9°F9.4°C 87% Calm Calm 1.2 mph1.9 kmh 30.03 in1016.9 mb - 0.00 in0.0 mm 0.00 in0.0 mm
07:35 AM 52.5°F11.4°C 48.5°F9.2°C 86% Calm Calm 1.2 mph1.9 kmh 30.03 in1016.9 mb - 0.00 in0.0 mm 0.00 in0.0 mm
07:40 AM 52.5°F11.4°C 48.5°F9.2°C 86% 1.2 mph SW1.9 kmh SW 2.3 mph3.7 kmh 30.03 in1016.9 mb - 0.00 in0.0 mm 0.00 in0.0 mm
07:45 AM 52.5°F11.4°C 48.5°F9.2°C 86% Calm Calm 1.2 mph1.9 kmh 30.03 in1016.9 mb - 0.00 in0.0 mm 0.00 in0.0 mm
07:50 AM 52.3°F11.3°C 48.3°F9.1°C 86% Calm Calm 1.2 mph1.9 kmh 30.03 in1016.9 mb - 0.00 in0.0 mm 0.00 in0.0 mm
07:55 AM 52.3°F11.3°C 48.3°F9.1°C 86% 1.2 mph NE1.9 kmh NE 1.2 mph1.9 kmh 30.03 in1016.9 mb - 0.00 in0.0 mm 0.00 in0.0 mm
08:00 AM 52.3°F11.3°C 48.3°F9.1°C 86% 1.2 mph N1.9 kmh N 3.5 mph5.6 kmh 30.03 in1016.9 mb - 0.00 in0.0 mm 0.00 in0.0 mm
08:10 AM 53.1°F11.7°C 49.0°F9.4°C 86% 1.2 mph E1.9 kmh E 4.6 mph7.4 kmh 30.06 in1017.9 mb - 0.00 in0.0 mm 0.00 in0.0 mm
08:15 AM 53.6°F12.0°C 49.5°F9.7°C 86% 1.2 mph NE1.9 kmh NE 2.3 mph3.7 kmh 30.06 in1017.9 mb - 0.00 in0.0 mm 0.00 in0.0 mm
08:20 AM 54.1°F12.3°C 50.0°F10.0°C 86% 1.2 mph N1.9 kmh N 1.2 mph1.9 kmh 30.06 in1017.9 mb - 0.00 in0.0 mm 0.00 in0.0 mm
08:25 AM 54.7°F12.6°C 50.6°F10.3°C 86% 2.3 mph S3.7 kmh S 5.8 mph9.3 kmh 30.06 in1017.9 mb - 0.00 in0.0 mm 0.00 in0.0 mm
08:30 AM 55.2°F12.9°C 51.1°F10.6°C 86% 2.3 mph E3.7 kmh E 3.5 mph5.6 kmh 30.06 in1017.9 mb - 0.00 in0.0 mm 0.00 in0.0 mm
08:35 AM 55.9°F13.3°C 51.8°F11.0°C 86% Calm Calm 1.2 mph1.9 kmh 30.06 in1017.9 mb - 0.00 in0.0 mm 0.00 in0.0 mm
08:40 AM 56.5°F13.6°C 52.0°F11.1°C 85% 1.2 mph S1.9 kmh S 3.5 mph5.6 kmh 30.06 in1017.9 mb - 0.00 in0.0 mm 0.00 in0.0 mm
08:45 AM 56.8°F13.8°C 51.7°F10.9°C 83% 1.2 mph SE1.9 kmh SE 3.5 mph5.6 kmh 30.06 in1017.9 mb - 0.00 in0.0 mm 0.00 in0.0 mm
08:50 AM 57.4°F14.1°C 51.2°F10.7°C 80% 1.2 mph E1.9 kmh E 2.3 mph3.7 kmh 30.06 in1017.9 mb - 0.00 in0.0 mm 0.00 in0.0 mm
08:55 AM 57.9°F14.4°C 51.4°F10.8°C 79% 3.5 mph E5.6 kmh E 5.8 mph9.3 kmh 30.06 in1017.9 mb - 0.00 in0.0 mm 0.00 in0.0 mm
09:00 AM 58.1°F14.5°C 50.6°F10.3°C 76% 4.6 mph SE7.4 kmh SE 6.9 mph11.1 kmh 30.06 in1017.9 mb - 0.00 in0.0 mm 0.00 in0.0 mm
09:10 AM 58.3°F14.6°C 49.3°F9.6°C 72% 1.2 mph S1.9 kmh S 1.2 mph1.9 kmh 30.06 in1017.9 mb - 0.00 in0.0 mm 0.00 in0.0 mm
09:15 AM 58.6°F14.8°C 49.3°F9.6°C 71% 3.5 mph NE5.6 kmh NE 5.8 mph9.3 kmh 30.06 in1017.9 mb - 0.00 in0.0 mm 0.00 in0.0 mm
09:20 AM 58.6°F14.8°C 48.9°F9.4°C 70% 4.6 mph E7.4 kmh E 8.1 mph13.0 kmh 30.06 in1017.9 mb - 0.00 in0.0 mm 0.00 in0.0 mm
09:25 AM 58.5°F14.7°C 47.6°F8.7°C 67% 9.2 mph E14.8 kmh E 11.5 mph18.5 kmh 30.06 in1017.9 mb - 0.00 in0.0 mm 0.00 in0.0 mm
09:30 AM 58.1°F14.5°C 47.2°F8.4°C 67% 2.3 mph E3.7 kmh E 6.9 mph11.1 kmh 30.06 in1017.9 mb - 0.00 in0.0 mm 0.00 in0.0 mm
09:35 AM 58.3°F14.6°C 47.4°F8.6°C 67% 3.5 mph ENE5.6 kmh ENE 8.1 mph13.0 kmh 30.06 in1017.9 mb - 0.00 in0.0 mm 0.00 in0.0 mm
09:40 AM 58.5°F14.7°C 47.5°F8.6°C 67% 8.1 mph ESE13.0 kmh ESE 9.2 mph14.8 kmh 30.06 in1017.9 mb - 0.00 in0.0 mm 0.00 in0.0 mm
09:45 AM 58.6°F14.8°C 47.7°F8.7°C 67% 1.2 mph NE1.9 kmh NE 4.6 mph7.4 kmh 30.06 in1017.9 mb - 0.00 in0.0 mm 0.00 in0.0 mm
09:50 AM 59.2°F15.1°C 47.8°F8.8°C 66% 3.5 mph E5.6 kmh E 6.9 mph11.1 kmh 30.06 in1017.9 mb - 0.00 in0.0 mm 0.00 in0.0 mm
09:55 AM 59.4°F15.2°C 47.6°F8.7°C 65% 3.5 mph SE5.6 kmh SE 8.1 mph13.0 kmh 30.06 in1017.9 mb - 0.00 in0.0 mm 0.00 in0.0 mm
10:00 AM 59.5°F15.3°C 47.3°F8.5°C 64% 4.6 mph SE7.4 kmh SE 6.9 mph11.1 kmh 30.06 in1017.9 mb - 0.00 in0.0 mm 0.00 in0.0 mm
10:10 AM 59.5°F15.3°C 46.9°F8.3°C 63% 4.6 mph E7.4 kmh E 9.2 mph14.8 kmh 30.09 in1019.0 mb - 0.00 in0.0 mm 0.00 in0.0 mm
10:15 AM 59.4°F15.2°C 46.8°F8.2°C 63% 3.5 mph E5.6 kmh E 8.1 mph13.0 kmh 30.09 in1019.0 mb - 0.00 in0.0 mm 0.00 in0.0 mm
10:20 AM 59.7°F15.4°C 47.1°F8.4°C 63% 6.9 mph ESE11.1 kmh ESE 10.4 mph16.7 kmh 30.09 in1019.0 mb - 0.00 in0.0 mm 0.00 in0.0 mm
10:25 AM 59.9°F15.5°C 46.8°F8.2°C 62% 2.3 mph SE3.7 kmh SE 4.6 mph7.4 kmh 30.09 in1019.0 mb - 0.00 in0.0 mm 0.00 in0.0 mm
10:30 AM 60.3°F15.7°C 47.2°F8.4°C 62% 2.3 mph E3.7 kmh E 4.6 mph7.4 kmh 30.09 in1019.0 mb - 0.00 in0.0 mm 0.00 in0.0 mm
10:35 AM 61.1°F16.2°C 47.6°F8.7°C 61% 2.3 mph SSE3.7 kmh SSE 3.5 mph5.6 kmh 30.09 in1019.0 mb - 0.00 in0.0 mm 0.00 in0.0 mm
10:40 AM 61.7°F16.5°C 47.2°F8.4°C 59% 5.8 mph S9.3 kmh S 9.2 mph14.8 kmh 30.09 in1019.0 mb - 0.00 in0.0 mm 0.00 in0.0 mm
10:45 AM 61.9°F16.6°C 46.0°F7.8°C 56% 3.5 mph E5.6 kmh E 6.9 mph11.1 kmh 30.09 in1019.0 mb - 0.00 in0.0 mm 0.00 in0.0 mm
10:50 AM 62.1°F16.7°C 46.2°F7.9°C 56% 1.2 mph E1.9 kmh E 4.6 mph7.4 kmh 30.09 in1019.0 mb - 0.00 in0.0 mm 0.00 in0.0 mm
10:55 AM 62.6°F17.0°C 46.2°F7.9°C 55% 5.8 mph E9.3 kmh E 8.1 mph13.0 kmh 30.09 in1019.0 mb - 0.00 in0.0 mm 0.00 in0.0 mm
11:00 AM 62.8°F17.1°C 45.9°F7.7°C 54% 5.8 mph E9.3 kmh E 8.1 mph13.0 kmh 30.09 in1019.0 mb - 0.00 in0.0 mm 0.00 in0.0 mm
11:10 AM 62.4°F16.9°C 45.5°F7.5°C 54% 6.9 mph E11.1 kmh E 9.2 mph14.8 kmh 30.09 in1019.0 mb - 0.00 in0.0 mm 0.00 in0.0 mm
11:15 AM 62.4°F16.9°C 45.1°F7.3°C 53% 4.6 mph E7.4 kmh E 9.2 mph14.8 kmh 30.09 in1019.0 mb - 0.00 in0.0 mm 0.00 in0.0 mm
11:20 AM 62.4°F16.9°C 45.5°F7.5°C 54% 5.8 mph E9.3 kmh E 10.4 mph16.7 kmh 30.09 in1019.0 mb - 0.00 in0.0 mm 0.00 in0.0 mm
11:25 AM 62.8°F17.1°C 45.4°F7.4°C 53% 6.9 mph ESE11.1 kmh ESE 10.4 mph16.7 kmh 30.09 in1019.0 mb - 0.00 in0.0 mm 0.00 in0.0 mm
11:30 AM 62.8°F17.1°C 44.9°F7.2°C 52% 4.6 mph SE7.4 kmh SE 9.2 mph14.8 kmh 30.09 in1019.0 mb - 0.00 in0.0 mm 0.00 in0.0 mm
11:35 AM 62.8°F17.1°C 44.4°F6.9°C 51% 3.5 mph SE5.6 kmh SE 9.2 mph14.8 kmh 30.09 in1019.0 mb - 0.00 in0.0 mm 0.00 in0.0 mm
11:40 AM 62.8°F17.1°C 44.4°F6.9°C 51% 6.9 mph E11.1 kmh E 10.4 mph16.7 kmh 30.09 in1019.0 mb - 0.00 in0.0 mm 0.00 in0.0 mm
11:45 AM 63.0°F17.2°C 45.1°F7.3°C 52% 6.9 mph SE11.1 kmh SE 11.5 mph18.5 kmh 30.09 in1019.0 mb - 0.00 in0.0 mm 0.00 in0.0 mm
11:50 AM 63.3°F17.4°C 45.4°F7.4°C 52% 3.5 mph SE5.6 kmh SE 5.8 mph9.3 kmh 30.09 in1019.0 mb - 0.00 in0.0 mm 0.00 in0.0 mm
11:55 AM 63.5°F17.5°C 45.0°F7.2°C 51% 11.5 mph SSE18.5 kmh SSE 17.3 mph27.8 kmh 30.09 in1019.0 mb - 0.00 in0.0 mm 0.00 in0.0 mm
12:00 PM 63.2°F17.3°C 44.7°F7.1°C 51% 5.8 mph E9.3 kmh E 9.2 mph14.8 kmh 30.09 in1019.0 mb - 0.00 in0.0 mm 0.00 in0.0 mm
12:10 PM 63.0°F17.2°C 44.5°F6.9°C 51% 8.1 mph SE13.0 kmh SE 13.8 mph22.2 kmh 30.09 in1019.0 mb - 0.00 in0.0 mm 0.00 in0.0 mm
12:15 PM 63.0°F17.2°C 45.1°F7.3°C 52% 6.9 mph E11.1 kmh E 13.8 mph22.2 kmh 30.09 in1019.0 mb - 0.00 in0.0 mm 0.00 in0.0 mm
12:20 PM 63.3°F17.4°C 44.9°F7.2°C 51% 9.2 mph E14.8 kmh E 12.7 mph20.4 kmh 30.09 in1019.0 mb - 0.00 in0.0 mm 0.00 in0.0 mm
12:30 PM 63.7°F17.6°C 45.2°F7.3°C 51% 5.8 mph E9.3 kmh E 12.7 mph20.4 kmh 30.09 in1019.0 mb - 0.00 in0.0 mm 0.00 in0.0 mm
12:35 PM 63.9°F17.7°C 45.4°F7.4°C 51% 3.5 mph SE5.6 kmh SE 5.8 mph9.3 kmh 30.09 in1019.0 mb - 0.00 in0.0 mm 0.00 in0.0 mm
12:40 PM 64.4°F18.0°C 45.9°F7.7°C 51% 4.6 mph W7.4 kmh W 8.1 mph13.0 kmh 30.09 in1019.0 mb - 0.00 in0.0 mm 0.00 in0.0 mm
12:45 PM 64.9°F18.3°C 45.8°F7.7°C 50% 4.6 mph E7.4 kmh E 8.1 mph13.0 kmh 30.09 in1019.0 mb - 0.00 in0.0 mm 0.00 in0.0 mm
12:50 PM 65.1°F18.4°C 46.0°F7.8°C 50% 3.5 mph SE5.6 kmh SE 8.1 mph13.0 kmh 30.09 in1019.0 mb - 0.00 in0.0 mm 0.00 in0.0 mm
12:55 PM 65.5°F18.6°C 47.4°F8.6°C 52% 1.2 mph SW1.9 kmh SW 4.6 mph7.4 kmh 30.09 in1019.0 mb - 0.00 in0.0 mm 0.00 in0.0 mm
01:00 PM 65.8°F18.8°C 47.7°F8.7°C 52% 3.5 mph SW5.6 kmh SW 5.8 mph9.3 kmh 30.09 in1019.0 mb - 0.00 in0.0 mm 0.00 in0.0 mm
01:10 PM 65.8°F18.8°C 46.1°F7.8°C 49% 5.8 mph SE9.3 kmh SE 6.9 mph11.1 kmh 30.06 in1017.9 mb - 0.00 in0.0 mm 0.00 in0.0 mm
01:15 PM 65.8°F18.8°C 46.1°F7.8°C 49% 3.5 mph SE5.6 kmh SE 5.8 mph9.3 kmh 30.06 in1017.9 mb - 0.00 in0.0 mm 0.00 in0.0 mm
01:20 PM 65.7°F18.7°C 46.0°F7.8°C 49% 6.9 mph ESE11.1 kmh ESE 8.1 mph13.0 kmh 30.06 in1017.9 mb - 0.00 in0.0 mm 0.00 in0.0 mm
01:25 PM 65.8°F18.8°C 46.7°F8.2°C 50% 2.3 mph E3.7 kmh E 5.8 mph9.3 kmh 30.06 in1017.9 mb - 0.00 in0.0 mm 0.00 in0.0 mm
01:30 PM 66.5°F19.2°C 46.8°F8.2°C 49% 4.6 mph SSE7.4 kmh SSE 8.1 mph13.0 kmh 30.06 in1017.9 mb - 0.00 in0.0 mm 0.00 in0.0 mm
01:35 PM 67.1°F19.5°C 46.7°F8.2°C 48% 4.6 mph S7.4 kmh S 5.8 mph9.3 kmh 30.06 in1017.9 mb - 0.00 in0.0 mm 0.00 in0.0 mm
01:40 PM 67.5°F19.7°C 47.6°F8.7°C 49% 5.8 mph E9.3 kmh E 8.1 mph13.0 kmh 30.06 in1017.9 mb - 0.00 in0.0 mm 0.00 in0.0 mm
01:45 PM 67.6°F19.8°C 46.7°F8.2°C 47% 2.3 mph N3.7 kmh N 5.8 mph9.3 kmh 30.06 in1017.9 mb - 0.00 in0.0 mm 0.00 in0.0 mm
01:50 PM 67.3°F19.6°C 46.4°F8.0°C 47% 9.2 mph SE14.8 kmh SE 11.5 mph18.5 kmh 30.06 in1017.9 mb - 0.00 in0.0 mm 0.00 in0.0 mm
01:55 PM 67.1°F19.5°C 46.2°F7.9°C 47% 11.5 mph SSE18.5 kmh SSE 17.3 mph27.8 kmh 30.06 in1017.9 mb - 0.00 in0.0 mm 0.00 in0.0 mm
02:00 PM 66.7°F19.3°C 45.3°F7.4°C 46% 8.1 mph E13.0 kmh E 9.2 mph14.8 kmh 30.06 in1017.9 mb - 0.00 in0.0 mm 0.00 in0.0 mm
02:10 PM 67.4°F19.7°C 45.9°F7.7°C 46% 2.3 mph SW3.7 kmh SW 4.6 mph7.4 kmh 30.06 in1017.9 mb - 0.00 in0.0 mm 0.00 in0.0 mm
02:15 PM 68.0°F20.0°C 45.9°F7.7°C 45% 3.5 mph SE5.6 kmh SE 10.4 mph16.7 kmh 30.06 in1017.9 mb - 0.00 in0.0 mm 0.00 in0.0 mm
02:20 PM 68.0°F20.0°C 45.9°F7.7°C 45% 3.5 mph S5.6 kmh S 5.8 mph9.3 kmh 30.06 in1017.9 mb - 0.00 in0.0 mm 0.00 in0.0 mm
02:25 PM 68.0°F20.0°C 45.8°F7.7°C 45% 5.8 mph N9.3 kmh N 8.1 mph13.0 kmh 30.06 in1017.9 mb - 0.00 in0.0 mm 0.00 in0.0 mm
02:30 PM 68.2°F20.1°C 46.0°F7.8°C 45% 5.8 mph ESE9.3 kmh ESE 10.4 mph16.7 kmh 30.06 in1017.9 mb - 0.00 in0.0 mm 0.00 in0.0 mm
02:35 PM 68.0°F20.0°C 45.3°F7.4°C 44% 3.5 mph SE5.6 kmh SE 5.8 mph9.3 kmh 30.06 in1017.9 mb - 0.00 in0.0 mm 0.00 in0.0 mm
02:40 PM 68.0°F20.0°C 45.9°F7.7°C 45% 10.4 mph E16.7 kmh E 17.3 mph27.8 kmh 30.06 in1017.9 mb - 0.00 in0.0 mm 0.00 in0.0 mm
02:45 PM 67.6°F19.8°C 44.9°F7.2°C 44% 5.8 mph SE9.3 kmh SE 9.2 mph14.8 kmh 30.06 in1017.9 mb - 0.00 in0.0 mm 0.00 in0.0 mm
02:50 PM 67.6°F19.8°C 45.5°F7.5°C 45% 5.8 mph E9.3 kmh E 10.4 mph16.7 kmh 30.06 in1017.9 mb - 0.00 in0.0 mm 0.00 in0.0 mm
02:55 PM 67.6°F19.8°C 45.5°F7.5°C 45% 5.8 mph S9.3 kmh S 10.4 mph16.7 kmh 30.06 in1017.9 mb - 0.00 in0.0 mm 0.00 in0.0 mm
03:00 PM 68.0°F20.0°C 45.8°F7.7°C 45% 3.5 mph N5.6 kmh N 6.9 mph11.1 kmh 30.06 in1017.9 mb - 0.00 in0.0 mm 0.00 in0.0 mm
03:10 PM 68.0°F20.0°C 45.3°F7.4°C 44% 5.8 mph SE9.3 kmh SE 8.1 mph13.0 kmh 30.03 in1016.9 mb - 0.00 in0.0 mm 0.00 in0.0 mm
03:15 PM 68.0°F20.0°C 45.9°F7.7°C 45% 5.8 mph SE9.3 kmh SE 10.4 mph16.7 kmh 30.03 in1016.9 mb - 0.00 in0.0 mm 0.00 in0.0 mm
03:20 PM 68.0°F20.0°C 46.4°F8.0°C 46% 5.8 mph NE9.3 kmh NE 9.2 mph14.8 kmh 30.03 in1016.9 mb - 0.00 in0.0 mm 0.00 in0.0 mm
03:25 PM 68.0°F20.0°C 45.3°F7.4°C 44% 3.5 mph SE5.6 kmh SE 8.1 mph13.0 kmh 30.03 in1016.9 mb - 0.00 in0.0 mm 0.00 in0.0 mm
03:30 PM 68.2°F20.1°C 46.0°F7.8°C 45% 3.5 mph SE5.6 kmh SE 8.1 mph13.0 kmh 30.03 in1016.9 mb - 0.00 in0.0 mm 0.00 in0.0 mm
03:35 PM 68.2°F20.1°C 45.4°F7.4°C 44% 8.1 mph E13.0 kmh E 12.7 mph20.4 kmh 30.03 in1016.9 mb - 0.00 in0.0 mm 0.00 in0.0 mm
03:40 PM 68.0°F20.0°C 44.7°F7.1°C 43% 3.5 mph SE5.6 kmh SE 8.1 mph13.0 kmh 30.03 in1016.9 mb - 0.00 in0.0 mm 0.00 in0.0 mm
03:45 PM 68.2°F20.1°C 45.4°F7.4°C 44% 5.8 mph SE9.3 kmh SE 8.1 mph13.0 kmh 30.03 in1016.9 mb - 0.00 in0.0 mm 0.00 in0.0 mm
03:50 PM 68.2°F20.1°C 44.8°F7.1°C 43% 3.5 mph SW5.6 kmh SW 6.9 mph11.1 kmh 30.03 in1016.9 mb - 0.00 in0.0 mm 0.00 in0.0 mm
03:55 PM 68.4°F20.2°C 45.6°F7.6°C 44% 2.3 mph E3.7 kmh E 8.1 mph13.0 kmh 30.03 in1016.9 mb - 0.00 in0.0 mm 0.00 in0.0 mm
04:00 PM 68.4°F20.2°C 45.0°F7.2°C 43% 1.2 mph SE1.9 kmh SE 3.5 mph5.6 kmh 30.03 in1016.9 mb - 0.00 in0.0 mm 0.00 in0.0 mm
04:10 PM 68.9°F20.5°C 45.5°F7.5°C 43% 3.5 mph E5.6 kmh E 8.1 mph13.0 kmh 30.00 in1015.9 mb - 0.00 in0.0 mm 0.00 in0.0 mm
04:15 PM 69.1°F20.6°C 45.6°F7.6°C 43% 3.5 mph SE5.6 kmh SE 6.9 mph11.1 kmh 30.00 in1015.9 mb - 0.00 in0.0 mm 0.00 in0.0 mm
04:20 PM 68.9°F20.5°C 43.6°F6.4°C 40% 6.9 mph E11.1 kmh E 11.5 mph18.5 kmh 30.00 in1015.9 mb - 0.00 in0.0 mm 0.00 in0.0 mm
04:25 PM 68.5°F20.3°C 44.5°F6.9°C 42% 5.8 mph SE9.3 kmh SE 6.9 mph11.1 kmh 30.00 in1015.9 mb - 0.00 in0.0 mm 0.00 in0.0 mm
04:30 PM 68.4°F20.2°C 45.0°F7.2°C 43% 3.5 mph SSE5.6 kmh SSE 8.1 mph13.0 kmh 30.00 in1015.9 mb - 0.00 in0.0 mm 0.00 in0.0 mm
04:35 PM 68.2°F20.1°C 44.2°F6.8°C 42% 3.5 mph SE5.6 kmh SE 5.8 mph9.3 kmh 30.00 in1015.9 mb - 0.00 in0.0 mm 0.00 in0.0 mm
04:40 PM 68.2°F20.1°C 44.8°F7.1°C 43% 3.5 mph NE5.6 kmh NE 5.8 mph9.3 kmh 30.00 in1015.9 mb - 0.00 in0.0 mm 0.00 in0.0 mm
04:45 PM 68.0°F20.0°C 44.7°F7.1°C 43% 6.9 mph E11.1 kmh E 8.1 mph13.0 kmh 30.00 in1015.9 mb - 0.00 in0.0 mm 0.00 in0.0 mm
04:50 PM 68.0°F20.0°C 44.7°F7.1°C 43% 3.5 mph E5.6 kmh E 5.8 mph9.3 kmh 30.00 in1015.9 mb - 0.00 in0.0 mm 0.00 in0.0 mm
04:55 PM 67.8°F19.9°C 45.1°F7.3°C 44% 3.5 mph SE5.6 kmh SE 6.9 mph11.1 kmh 30.00 in1015.9 mb - 0.00 in0.0 mm 0.00 in0.0 mm
05:00 PM 67.5°F19.7°C 45.4°F7.4°C 45% 4.6 mph SE7.4 kmh SE 6.9 mph11.1 kmh 30.00 in1015.9 mb - 0.00 in0.0 mm 0.00 in0.0 mm
05:10 PM 67.1°F19.5°C 45.6°F7.6°C 46% 3.5 mph E5.6 kmh E 6.9 mph11.1 kmh 30.00 in1015.9 mb - 0.00 in0.0 mm 0.00 in0.0 mm
05:15 PM 66.9°F19.4°C 45.5°F7.5°C 46% 2.3 mph SE3.7 kmh SE 6.9 mph11.1 kmh 30.00 in1015.9 mb - 0.00 in0.0 mm 0.00 in0.0 mm
05:20 PM 66.6°F19.2°C 45.1°F7.3°C 46% 3.5 mph E5.6 kmh E 6.9 mph11.1 kmh 30.00 in1015.9 mb - 0.00 in0.0 mm 0.00 in0.0 mm
05:25 PM 66.4°F19.1°C 45.5°F7.5°C 47% 6.9 mph E11.1 kmh E 10.4 mph16.7 kmh 30.00 in1015.9 mb - 0.00 in0.0 mm 0.00 in0.0 mm
05:30 PM 66.0°F18.9°C 45.8°F7.7°C 48% 3.5 mph E5.6 kmh E 4.6 mph7.4 kmh 30.00 in1015.9 mb - 0.00 in0.0 mm 0.00 in0.0 mm
05:35 PM 65.8°F18.8°C 45.6°F7.6°C 48% 1.2 mph SE1.9 kmh SE 2.3 mph3.7 kmh 30.00 in1015.9 mb - 0.00 in0.0 mm 0.00 in0.0 mm
05:40 PM 65.8°F18.8°C 46.1°F7.8°C 49% 2.3 mph SE3.7 kmh SE 3.5 mph5.6 kmh 30.00 in1015.9 mb - 0.00 in0.0 mm 0.00 in0.0 mm
05:45 PM 65.7°F18.7°C 46.5°F8.1°C 50% 1.2 mph S1.9 kmh S 3.5 mph5.6 kmh 30.00 in1015.9 mb - 0.00 in0.0 mm 0.00 in0.0 mm
05:50 PM 65.5°F18.6°C 46.3°F7.9°C 50% 6.9 mph E11.1 kmh E 10.4 mph16.7 kmh 30.00 in1015.9 mb - 0.00 in0.0 mm 0.00 in0.0 mm
05:55 PM 65.3°F18.5°C 46.2°F7.9°C 50% 3.5 mph E5.6 kmh E 5.8 mph9.3 kmh 30.00 in1015.9 mb - 0.00 in0.0 mm 0.00 in0.0 mm
06:00 PM 65.1°F18.4°C 46.0°F7.8°C 50% 3.5 mph SE5.6 kmh SE 5.8 mph9.3 kmh 30.00 in1015.9 mb - 0.00 in0.0 mm 0.00 in0.0 mm
06:10 PM 64.8°F18.2°C 46.2°F7.9°C 51% 1.2 mph SE1.9 kmh SE 3.5 mph5.6 kmh 30.00 in1015.9 mb - 0.00 in0.0 mm 0.00 in0.0 mm
06:15 PM 64.8°F18.2°C 46.2°F7.9°C 51% 3.5 mph E5.6 kmh E 5.8 mph9.3 kmh 30.00 in1015.9 mb - 0.00 in0.0 mm 0.00 in0.0 mm
06:20 PM 64.6°F18.1°C 46.0°F7.8°C 51% 1.2 mph SE1.9 kmh SE 1.2 mph1.9 kmh 30.00 in1015.9 mb - 0.00 in0.0 mm 0.00 in0.0 mm
06:25 PM 64.4°F18.0°C 46.4°F8.0°C 52% Calm Calm 1.2 mph1.9 kmh 30.00 in1015.9 mb - 0.00 in0.0 mm 0.00 in0.0 mm
06:30 PM 64.2°F17.9°C 46.7°F8.2°C 53% Calm Calm -- 30.00 in1015.9 mb - 0.00 in0.0 mm 0.00 in0.0 mm
06:35 PM 63.9°F17.7°C 46.9°F8.3°C 54% Calm Calm -- 30.00 in1015.9 mb - 0.00 in0.0 mm 0.00 in0.0 mm
06:40 PM 63.5°F17.5°C 46.1°F7.8°C 53% Calm Calm 1.2 mph1.9 kmh 30.00 in1015.9 mb - 0.00 in0.0 mm 0.00 in0.0 mm
06:45 PM 63.1°F17.3°C 46.2°F7.9°C 54% Calm Calm 1.2 mph1.9 kmh 30.00 in1015.9 mb - 0.00 in0.0 mm 0.00 in0.0 mm
06:50 PM 62.8°F17.1°C 45.9°F7.7°C 54% 1.2 mph N1.9 kmh N 3.5 mph5.6 kmh 30.00 in1015.9 mb - 0.00 in0.0 mm 0.00 in0.0 mm
06:55 PM 62.6°F17.0°C 45.7°F7.6°C 54% 2.3 mph SE3.7 kmh SE 3.5 mph5.6 kmh 30.00 in1015.9 mb - 0.00 in0.0 mm 0.00 in0.0 mm
07:00 PM 62.3°F16.8°C 46.4°F8.0°C 56% 1.2 mph NE1.9 kmh NE 1.2 mph1.9 kmh 30.00 in1015.9 mb - 0.00 in0.0 mm 0.00 in0.0 mm
07:10 PM 61.7°F16.5°C 45.8°F7.7°C 56% 1.2 mph E1.9 kmh E 1.2 mph1.9 kmh 30.03 in1016.9 mb - 0.00 in0.0 mm 0.00 in0.0 mm
07:15 PM 61.5°F16.4°C 46.1°F7.8°C 57% 1.2 mph SE1.9 kmh SE 2.3 mph3.7 kmh 30.03 in1016.9 mb - 0.00 in0.0 mm 0.00 in0.0 mm
07:20 PM 61.3°F16.3°C 46.0°F7.8°C 57% 1.2 mph ESE1.9 kmh ESE 2.3 mph3.7 kmh 30.03 in1016.9 mb - 0.00 in0.0 mm 0.00 in0.0 mm
07:25 PM 61.2°F16.2°C 46.3°F7.9°C 58% 3.5 mph E5.6 kmh E 5.8 mph9.3 kmh 30.03 in1016.9 mb - 0.00 in0.0 mm 0.00 in0.0 mm
07:30 PM 61.2°F16.2°C 46.3°F7.9°C 58% 2.3 mph SSE3.7 kmh SSE 3.5 mph5.6 kmh 30.03 in1016.9 mb - 0.00 in0.0 mm 0.00 in0.0 mm
07:35 PM 61.2°F16.2°C 46.3°F7.9°C 58% 3.5 mph E5.6 kmh E 5.8 mph9.3 kmh 30.03 in1016.9 mb - 0.00 in0.0 mm 0.00 in0.0 mm
07:40 PM 61.1°F16.2°C 46.2°F7.9°C 58% 5.8 mph E9.3 kmh E 9.2 mph14.8 kmh 30.03 in1016.9 mb - 0.00 in0.0 mm 0.00 in0.0 mm
07:45 PM 61.3°F16.3°C 46.4°F8.0°C 58% 3.5 mph SSE5.6 kmh SSE 5.8 mph9.3 kmh 30.03 in1016.9 mb - 0.00 in0.0 mm 0.00 in0.0 mm
07:50 PM 61.3°F16.3°C 46.4°F8.0°C 58% 4.6 mph E7.4 kmh E 6.9 mph11.1 kmh 30.03 in1016.9 mb - 0.00 in0.0 mm 0.00 in0.0 mm
07:55 PM 61.3°F16.3°C 46.4°F8.0°C 58% 2.3 mph SE3.7 kmh SE 3.5 mph5.6 kmh 30.03 in1016.9 mb - 0.00 in0.0 mm 0.00 in0.0 mm
08:00 PM 61.2°F16.2°C 46.3°F7.9°C 58% 2.3 mph S3.7 kmh S 5.8 mph9.3 kmh 30.03 in1016.9 mb - 0.00 in0.0 mm 0.00 in0.0 mm
08:10 PM 60.6°F15.9°C 46.7°F8.2°C 60% 1.2 mph W1.9 kmh W 1.2 mph1.9 kmh 30.03 in1016.9 mb - 0.00 in0.0 mm 0.00 in0.0 mm
08:15 PM 60.1°F15.6°C 46.2°F7.9°C 60% Calm Calm -- 30.03 in1016.9 mb - 0.00 in0.0 mm 0.00 in0.0 mm
08:20 PM 59.9°F15.5°C 46.4°F8.0°C 61% 1.2 mph W1.9 kmh W 1.2 mph1.9 kmh 30.03 in1016.9 mb - 0.00 in0.0 mm 0.00 in0.0 mm
08:25 PM 59.5°F15.3°C 46.5°F8.1°C 62% 1.2 mph NW1.9 kmh NW 1.2 mph1.9 kmh 30.03 in1016.9 mb - 0.00 in0.0 mm 0.00 in0.0 mm
08:30 PM 59.2°F15.1°C 46.6°F8.1°C 63% 1.2 mph NW1.9 kmh NW 2.3 mph3.7 kmh 30.03 in1016.9 mb - 0.00 in0.0 mm 0.00 in0.0 mm
08:35 PM 58.8°F14.9°C 46.7°F8.2°C 64% 1.2 mph NW1.9 kmh NW 2.3 mph3.7 kmh 30.03 in1016.9 mb - 0.00 in0.0 mm 0.00 in0.0 mm
08:40 PM 58.6°F14.8°C 46.9°F8.3°C 65% 2.3 mph W3.7 kmh W 3.5 mph5.6 kmh 30.03 in1016.9 mb - 0.00 in0.0 mm 0.00 in0.0 mm
08:45 PM 58.5°F14.7°C 46.7°F8.2°C 65% 2.3 mph W3.7 kmh W 3.5 mph5.6 kmh 30.03 in1016.9 mb - 0.00 in0.0 mm 0.00 in0.0 mm
08:50 PM 58.5°F14.7°C 46.7°F8.2°C 65% 1.2 mph W1.9 kmh W 3.5 mph5.6 kmh 30.03 in1016.9 mb - 0.00 in0.0 mm 0.00 in0.0 mm
08:55 PM 58.3°F14.6°C 47.0°F8.3°C 66% Calm Calm 1.2 mph1.9 kmh 30.03 in1016.9 mb - 0.00 in0.0 mm 0.00 in0.0 mm
09:00 PM 58.1°F14.5°C 46.8°F8.2°C 66% Calm Calm 1.2 mph1.9 kmh 30.03 in1016.9 mb - 0.00 in0.0 mm 0.00 in0.0 mm
09:10 PM 57.2°F14.0°C 46.3°F7.9°C 67% Calm Calm 1.2 mph1.9 kmh 30.06 in1017.9 mb - 0.00 in0.0 mm 0.00 in0.0 mm
09:15 PM 56.7°F13.7°C 46.2°F7.9°C 68% 1.2 mph NW1.9 kmh NW 2.3 mph3.7 kmh 30.06 in1017.9 mb - 0.00 in0.0 mm 0.00 in0.0 mm
09:20 PM 56.3°F13.5°C 46.3°F7.9°C 69% 1.2 mph W1.9 kmh W 2.3 mph3.7 kmh 30.06 in1017.9 mb - 0.00 in0.0 mm 0.00 in0.0 mm
09:25 PM 56.0°F13.3°C 46.3°F7.9°C 70% Calm Calm -- 30.06 in1017.9 mb - 0.00 in0.0 mm 0.00 in0.0 mm
09:30 PM 55.6°F13.1°C 46.3°F7.9°C 71% 3.5 mph W5.6 kmh W 3.5 mph5.6 kmh 30.06 in1017.9 mb - 0.00 in0.0 mm 0.00 in0.0 mm
09:35 PM 55.0°F12.8°C 46.5°F8.1°C 73% 4.6 mph W7.4 kmh W 5.8 mph9.3 kmh 30.06 in1017.9 mb - 0.00 in0.0 mm 0.00 in0.0 mm
09:40 PM 54.7°F12.6°C 46.6°F8.1°C 74% 3.5 mph NW5.6 kmh NW 4.6 mph7.4 kmh 30.06 in1017.9 mb - 0.00 in0.0 mm 0.00 in0.0 mm
09:45 PM 54.5°F12.5°C 46.7°F8.2°C 75% 3.5 mph W5.6 kmh W 4.6 mph7.4 kmh 30.06 in1017.9 mb - 0.00 in0.0 mm 0.00 in0.0 mm
09:50 PM 54.3°F12.4°C 46.6°F8.1°C 75% 3.5 mph W5.6 kmh W 4.6 mph7.4 kmh 30.06 in1017.9 mb - 0.00 in0.0 mm 0.00 in0.0 mm
09:55 PM 54.1°F12.3°C 46.7°F8.2°C 76% 4.6 mph W7.4 kmh W 5.8 mph9.3 kmh 30.06 in1017.9 mb - 0.00 in0.0 mm 0.00 in0.0 mm
10:00 PM 54.0°F12.2°C 46.6°F8.1°C 76% 2.3 mph W3.7 kmh W 3.5 mph5.6 kmh 30.06 in1017.9 mb - 0.00 in0.0 mm 0.00 in0.0 mm
10:10 PM 53.8°F12.1°C 46.7°F8.2°C 77% 2.3 mph SW3.7 kmh SW 3.5 mph5.6 kmh 30.06 in1017.9 mb - 0.00 in0.0 mm 0.00 in0.0 mm
10:15 PM 53.6°F12.0°C 46.6°F8.1°C 77% 1.2 mph W1.9 kmh W 3.5 mph5.6 kmh 30.06 in1017.9 mb - 0.00 in0.0 mm 0.00 in0.0 mm
10:20 PM 53.6°F12.0°C 46.6°F8.1°C 77% 2.3 mph NW3.7 kmh NW 3.5 mph5.6 kmh 30.06 in1017.9 mb - 0.00 in0.0 mm 0.00 in0.0 mm
10:25 PM 53.3°F11.8°C 46.9°F8.3°C 79% 4.6 mph NW7.4 kmh NW 5.8 mph9.3 kmh 30.06 in1017.9 mb - 0.00 in0.0 mm 0.00 in0.0 mm
10:30 PM 53.1°F11.7°C 47.1°F8.4°C 80% 3.5 mph W5.6 kmh W 5.8 mph9.3 kmh 30.06 in1017.9 mb - 0.00 in0.0 mm 0.00 in0.0 mm
10:35 PM 53.1°F11.7°C 47.1°F8.4°C 80% 4.6 mph W7.4 kmh W 5.8 mph9.3 kmh 30.06 in1017.9 mb - 0.00 in0.0 mm 0.00 in0.0 mm
10:40 PM 53.1°F11.7°C 47.4°F8.6°C 81% 3.5 mph W5.6 kmh W 5.8 mph9.3 kmh 30.06 in1017.9 mb - 0.00 in0.0 mm 0.00 in0.0 mm
10:45 PM 53.1°F11.7°C 47.4°F8.6°C 81% 2.3 mph WSW3.7 kmh WSW 5.8 mph9.3 kmh 30.06 in1017.9 mb - 0.00 in0.0 mm 0.00 in0.0 mm
10:50 PM 52.9°F11.6°C 46.9°F8.3°C 80% 1.2 mph SW1.9 kmh SW 2.3 mph3.7 kmh 30.06 in1017.9 mb - 0.00 in0.0 mm 0.00 in0.0 mm
10:55 PM 52.9°F11.6°C 46.9°F8.3°C 80% 3.5 mph W5.6 kmh W 5.8 mph9.3 kmh 30.06 in1017.9 mb - 0.00 in0.0 mm 0.00 in0.0 mm
11:00 PM 52.5°F11.4°C 46.9°F8.3°C 81% 4.6 mph W7.4 kmh W 5.8 mph9.3 kmh 30.06 in1017.9 mb - 0.00 in0.0 mm 0.00 in0.0 mm
11:10 PM 52.3°F11.3°C 47.0°F8.3°C 82% 1.2 mph SW1.9 kmh SW 3.5 mph5.6 kmh 30.06 in1017.9 mb - 0.00 in0.0 mm 0.00 in0.0 mm
11:15 PM 52.2°F11.2°C 46.8°F8.2°C 82% 1.2 mph W1.9 kmh W 3.5 mph5.6 kmh 30.06 in1017.9 mb - 0.00 in0.0 mm 0.00 in0.0 mm
11:20 PM 52.0°F11.1°C 46.7°F8.2°C 82% 4.6 mph NW7.4 kmh NW 6.9 mph11.1 kmh 30.06 in1017.9 mb - 0.00 in0.0 mm 0.00 in0.0 mm
11:25 PM 51.8°F11.0°C 46.5°F8.1°C 82% 2.3 mph W3.7 kmh W 4.6 mph7.4 kmh 30.06 in1017.9 mb - 0.00 in0.0 mm 0.00 in0.0 mm
11:30 PM 51.8°F11.0°C 46.5°F8.1°C 82% 4.6 mph W7.4 kmh W 6.9 mph11.1 kmh 30.06 in1017.9 mb - 0.00 in0.0 mm 0.00 in0.0 mm
11:35 PM 51.8°F11.0°C 46.8°F8.2°C 83% 4.6 mph SW7.4 kmh SW 5.8 mph9.3 kmh 30.06 in1017.9 mb - 0.00 in0.0 mm 0.00 in0.0 mm
11:40 PM 51.6°F10.9°C 46.9°F8.3°C 84% 2.3 mph W3.7 kmh W 3.5 mph5.6 kmh 30.06 in1017.9 mb - 0.00 in0.0 mm 0.00 in0.0 mm
11:45 PM 51.5°F10.8°C 46.8°F8.2°C 84% 2.3 mph W3.7 kmh W 3.5 mph5.6 kmh 30.06 in1017.9 mb - 0.00 in0.0 mm 0.00 in0.0 mm
11:50 PM 51.1°F10.6°C 46.4°F8.0°C 84% 5.8 mph W9.3 kmh W 6.9 mph11.1 kmh 30.06 in1017.9 mb - 0.00 in0.0 mm 0.00 in0.0 mm
11:55 PM 50.9°F10.5°C 46.2°F7.9°C 84% 6.9 mph W11.1 kmh W 8.1 mph13.0 kmh 30.06 in1017.9 mb - 0.00 in0.0 mm 0.00 in0.0 mm